sensor_id;sensor_type;location;lat;lon;timestamp;temperature;humidity
75010;DHT22;63564;46.840;18.336;2023-07-24T00:01:58;20.73;89.85
75010;DHT22;63564;46.840;18.336;2023-07-24T00:04:59;20.64;90.36
75010;DHT22;63564;46.840;18.336;2023-07-24T00:07:59;20.67;90.07
75010;DHT22;63564;46.840;18.336;2023-07-24T00:10:59;20.77;89.55
75010;DHT22;63564;46.840;18.336;2023-07-24T00:14:00;20.63;89.82
75010;DHT22;63564;46.840;18.336;2023-07-24T00:17:00;20.56;90.05
75010;DHT22;63564;46.840;18.336;2023-07-24T00:20:01;20.61;89.90
75010;DHT22;63564;46.840;18.336;2023-07-24T00:23:01;20.51;90.23
75010;DHT22;63564;46.840;18.336;2023-07-24T00:26:02;20.50;90.69
75010;DHT22;63564;46.840;18.336;2023-07-24T00:29:02;20.46;90.81
75010;DHT22;63564;46.840;18.336;2023-07-24T00:32:03;20.43;91.03
75010;DHT22;63564;46.840;18.336;2023-07-24T00:35:04;20.40;90.93
75010;DHT22;63564;46.840;18.336;2023-07-24T00:38:04;20.39;91.18
75010;DHT22;63564;46.840;18.336;2023-07-24T00:41:05;20.36;91.21
75010;DHT22;63564;46.840;18.336;2023-07-24T00:44:05;20.40;91.24
75010;DHT22;63564;46.840;18.336;2023-07-24T00:47:06;20.46;91.27
75010;DHT22;63564;46.840;18.336;2023-07-24T00:50:07;20.43;91.42
75010;DHT22;63564;46.840;18.336;2023-07-24T00:53:08;20.42;91.54
75010;DHT22;63564;46.840;18.336;2023-07-24T00:56:09;20.37;91.78
75010;DHT22;63564;46.840;18.336;2023-07-24T00:59:11;20.43;91.93
75010;DHT22;63564;46.840;18.336;2023-07-24T01:02:11;20.44;91.94
75010;DHT22;63564;46.840;18.336;2023-07-24T01:05:16;20.46;91.94
75010;DHT22;63564;46.840;18.336;2023-07-24T01:08:17;20.47;92.11
75010;DHT22;63564;46.840;18.336;2023-07-24T01:14:33;20.36;92.52
75010;DHT22;63564;46.840;18.336;2023-07-24T01:17:39;20.46;92.40
75010;DHT22;63564;46.840;18.336;2023-07-24T01:20:50;20.47;92.52
75010;DHT22;63564;46.840;18.336;2023-07-24T01:26:54;20.66;92.17
75010;DHT22;63564;46.840;18.336;2023-07-24T01:29:54;20.69;92.11
75010;DHT22;63564;46.840;18.336;2023-07-24T01:32:55;20.81;91.81
75010;DHT22;63564;46.840;18.336;2023-07-24T01:35:58;20.74;91.98
75010;DHT22;63564;46.840;18.336;2023-07-24T01:38:59;20.78;91.63
75010;DHT22;63564;46.840;18.336;2023-07-24T01:42:00;20.81;91.64
75010;DHT22;63564;46.840;18.336;2023-07-24T01:45:03;20.88;91.63
75010;DHT22;63564;46.840;18.336;2023-07-24T01:48:04;20.84;91.70
75010;DHT22;63564;46.840;18.336;2023-07-24T01:51:05;20.84;91.98
75010;DHT22;63564;46.840;18.336;2023-07-24T01:54:05;20.77;92.47
75010;DHT22;63564;46.840;18.336;2023-07-24T01:57:06;20.51;93.56
75010;DHT22;63564;46.840;18.336;2023-07-24T02:00:07;20.36;94.26
75010;DHT22;63564;46.840;18.336;2023-07-24T02:03:07;20.46;93.83
75010;DHT22;63564;46.840;18.336;2023-07-24T02:06:08;20.43;93.99
75010;DHT22;63564;46.840;18.336;2023-07-24T02:09:09;20.36;94.21
75010;DHT22;63564;46.840;18.336;2023-07-24T02:12:09;20.36;94.21
75010;DHT22;63564;46.840;18.336;2023-07-24T02:15:10;20.06;95.14
75010;DHT22;63564;46.840;18.336;2023-07-24T02:18:10;20.09;94.71
75010;DHT22;63564;46.840;18.336;2023-07-24T02:21:11;20.02;94.75
75010;DHT22;63564;46.840;18.336;2023-07-24T02:24:11;20.13;94.61
75010;DHT22;63564;46.840;18.336;2023-07-24T02:27:12;20.30;94.67
75010;DHT22;63564;46.840;18.336;2023-07-24T02:30:14;20.37;94.07
75010;DHT22;63564;46.840;18.336;2023-07-24T02:33:14;20.34;94.07
75010;DHT22;63564;46.840;18.336;2023-07-24T02:36:15;20.34;94.17
75010;DHT22;63564;46.840;18.336;2023-07-24T02:39:15;20.37;94.08
75010;DHT22;63564;46.840;18.336;2023-07-24T02:42:16;20.33;94.46
75010;DHT22;63564;46.840;18.336;2023-07-24T02:45:16;20.29;94.09
75010;DHT22;63564;46.840;18.336;2023-07-24T02:48:16;20.25;94.38
75010;DHT22;63564;46.840;18.336;2023-07-24T02:51:17;20.36;93.99
75010;DHT22;63564;46.840;18.336;2023-07-24T02:54:17;20.39;93.80
75010;DHT22;63564;46.840;18.336;2023-07-24T02:57:18;20.36;94.03
75010;DHT22;63564;46.840;18.336;2023-07-24T03:00:18;20.34;93.95
75010;DHT22;63564;46.840;18.336;2023-07-24T03:03:18;20.36;93.84
75010;DHT22;63564;46.840;18.336;2023-07-24T03:06:19;20.30;93.84
75010;DHT22;63564;46.840;18.336;2023-07-24T03:09:19;20.30;93.85
75010;DHT22;63564;46.840;18.336;2023-07-24T03:12:20;20.23;94.07
75010;DHT22;63564;46.840;18.336;2023-07-24T03:15:20;20.25;94.00
75010;DHT22;63564;46.840;18.336;2023-07-24T03:18:21;20.15;94.25
75010;DHT22;63564;46.840;18.336;2023-07-24T03:21:21;20.09;94.47
75010;DHT22;63564;46.840;18.336;2023-07-24T03:24:22;20.09;94.50
75010;DHT22;63564;46.840;18.336;2023-07-24T03:27:22;20.06;94.55
75010;DHT22;63564;46.840;18.336;2023-07-24T03:30:22;19.96;94.68
75010;DHT22;63564;46.840;18.336;2023-07-24T03:33:23;19.92;94.88
75010;DHT22;63564;46.840;18.336;2023-07-24T03:36:23;19.89;94.76
75010;DHT22;63564;46.840;18.336;2023-07-24T03:39:24;19.86;94.65
75010;DHT22;63564;46.840;18.336;2023-07-24T03:42:27;19.89;94.69
75010;DHT22;63564;46.840;18.336;2023-07-24T03:45:27;19.85;94.81
75010;DHT22;63564;46.840;18.336;2023-07-24T03:48:28;19.86;95.00
75010;DHT22;63564;46.840;18.336;2023-07-24T03:51:28;19.94;94.99
75010;DHT22;63564;46.840;18.336;2023-07-24T03:54:28;19.96;94.78
75010;DHT22;63564;46.840;18.336;2023-07-24T03:57:29;19.92;94.90
75010;DHT22;63564;46.840;18.336;2023-07-24T04:00:29;19.94;95.17
75010;DHT22;63564;46.840;18.336;2023-07-24T04:03:30;20.02;94.97
75010;DHT22;63564;46.840;18.336;2023-07-24T04:06:30;20.11;94.67
75010;DHT22;63564;46.840;18.336;2023-07-24T04:09:30;20.15;94.68
75010;DHT22;63564;46.840;18.336;2023-07-24T04:12:31;20.28;94.30
75010;DHT22;63564;46.840;18.336;2023-07-24T04:15:31;20.34;94.20
75010;DHT22;63564;46.840;18.336;2023-07-24T04:18:32;20.33;94.60
75010;DHT22;63564;46.840;18.336;2023-07-24T04:21:32;20.34;94.59
75010;DHT22;63564;46.840;18.336;2023-07-24T04:24:32;20.43;94.33
75010;DHT22;63564;46.840;18.336;2023-07-24T04:27:33;20.54;94.11
75010;DHT22;63564;46.840;18.336;2023-07-24T04:30:33;20.61;94.05
75010;DHT22;63564;46.840;18.336;2023-07-24T04:33:33;20.70;93.93
75010;DHT22;63564;46.840;18.336;2023-07-24T04:36:34;20.60;94.32
75010;DHT22;63564;46.840;18.336;2023-07-24T04:39:34;20.71;94.16
75010;DHT22;63564;46.840;18.336;2023-07-24T04:42:35;20.80;94.08
75010;DHT22;63564;46.840;18.336;2023-07-24T04:45:35;20.90;93.80
75010;DHT22;63564;46.840;18.336;2023-07-24T04:48:35;21.05;93.27
75010;DHT22;63564;46.840;18.336;2023-07-24T04:51:36;20.97;93.67
75010;DHT22;63564;46.840;18.336;2023-07-24T04:54:37;20.95;94.23
75010;DHT22;63564;46.840;18.336;2023-07-24T04:57:37;21.16;93.79
75010;DHT22;63564;46.840;18.336;2023-07-24T05:00:37;21.32;93.30
75010;DHT22;63564;46.840;18.336;2023-07-24T05:03:56;21.29;93.28
75010;DHT22;63564;46.840;18.336;2023-07-24T05:06:57;21.31;93.29
75010;DHT22;63564;46.840;18.336;2023-07-24T05:09:57;21.25;93.55
75010;DHT22;63564;46.840;18.336;2023-07-24T05:12:57;21.47;92.82
75010;DHT22;63564;46.840;18.336;2023-07-24T05:15:58;21.54;92.88
75010;DHT22;63564;46.840;18.336;2023-07-24T05:18:58;21.76;92.44
75010;DHT22;63564;46.840;18.336;2023-07-24T05:21:58;21.89;92.14
75010;DHT22;63564;46.840;18.336;2023-07-24T05:24:59;21.87;92.46
75010;DHT22;63564;46.840;18.336;2023-07-24T05:27:59;22.02;92.38
75010;DHT22;63564;46.840;18.336;2023-07-24T05:31:04;21.96;92.13
75010;DHT22;63564;46.840;18.336;2023-07-24T05:34:04;22.11;91.90
75010;DHT22;63564;46.840;18.336;2023-07-24T05:37:05;22.24;91.61
75010;DHT22;63564;46.840;18.336;2023-07-24T05:40:06;22.44;91.13
75010;DHT22;63564;46.840;18.336;2023-07-24T05:43:07;22.41;91.39
75010;DHT22;63564;46.840;18.336;2023-07-24T05:46:07;22.62;90.42
75010;DHT22;63564;46.840;18.336;2023-07-24T05:49:07;22.66;90.26
75010;DHT22;63564;46.840;18.336;2023-07-24T05:52:08;22.83;89.36
75010;DHT22;63564;46.840;18.336;2023-07-24T05:55:08;22.97;88.76
75010;DHT22;63564;46.840;18.336;2023-07-24T05:58:09;23.04;88.47
75010;DHT22;63564;46.840;18.336;2023-07-24T06:01:09;23.20;88.04
75010;DHT22;63564;46.840;18.336;2023-07-24T06:04:10;23.28;87.89
75010;DHT22;63564;46.840;18.336;2023-07-24T06:07:10;23.38;87.24
75010;DHT22;63564;46.840;18.336;2023-07-24T06:10:11;23.54;86.31
75010;DHT22;63564;46.840;18.336;2023-07-24T06:13:11;23.62;86.27
75010;DHT22;63564;46.840;18.336;2023-07-24T06:16:12;23.75;85.28
75010;DHT22;63564;46.840;18.336;2023-07-24T06:19:14;23.66;85.57
75010;DHT22;63564;46.840;18.336;2023-07-24T06:22:15;23.66;86.08
75010;DHT22;63564;46.840;18.336;2023-07-24T06:25:15;23.52;86.17
75010;DHT22;63564;46.840;18.336;2023-07-24T06:28:15;23.52;86.54
75010;DHT22;63564;46.840;18.336;2023-07-24T06:31:16;23.89;85.82
75010;DHT22;63564;46.840;18.336;2023-07-24T06:34:16;23.59;86.48
75010;DHT22;63564;46.840;18.336;2023-07-24T06:37:17;23.59;86.18
75010;DHT22;63564;46.840;18.336;2023-07-24T06:40:17;23.72;85.27
75010;DHT22;63564;46.840;18.336;2023-07-24T06:43:17;24.00;84.70
75010;DHT22;63564;46.840;18.336;2023-07-24T06:46:18;23.93;84.70
75010;DHT22;63564;46.840;18.336;2023-07-24T06:49:18;24.02;85.07
75010;DHT22;63564;46.840;18.336;2023-07-24T06:52:18;24.13;84.54
75010;DHT22;63564;46.840;18.336;2023-07-24T06:55:20;24.26;84.17
75010;DHT22;63564;46.840;18.336;2023-07-24T06:58:20;24.34;84.02
75010;DHT22;63564;46.840;18.336;2023-07-24T07:01:21;24.53;82.19
75010;DHT22;63564;46.840;18.336;2023-07-24T07:04:21;24.53;81.98
75010;DHT22;63564;46.840;18.336;2023-07-24T07:07:21;24.60;82.01
75010;DHT22;63564;46.840;18.336;2023-07-24T07:10:22;24.79;81.17
75010;DHT22;63564;46.840;18.336;2023-07-24T07:13:22;24.99;80.79
75010;DHT22;63564;46.840;18.336;2023-07-24T07:16:22;25.08;80.84
75010;DHT22;63564;46.840;18.336;2023-07-24T07:19:23;25.39;80.12
75010;DHT22;63564;46.840;18.336;2023-07-24T07:22:23;25.50;77.97
75010;DHT22;63564;46.840;18.336;2023-07-24T07:25:24;25.64;79.78
75010;DHT22;63564;46.840;18.336;2023-07-24T07:28:24;25.75;76.72
75010;DHT22;63564;46.840;18.336;2023-07-24T07:31:24;25.98;77.20
75010;DHT22;63564;46.840;18.336;2023-07-24T07:34:25;26.04;76.29
75010;DHT22;63564;46.840;18.336;2023-07-24T07:37:25;26.12;75.04
75010;DHT22;63564;46.840;18.336;2023-07-24T07:40:26;26.15;73.27
75010;DHT22;63564;46.840;18.336;2023-07-24T07:43:29;26.23;73.48
75010;DHT22;63564;46.840;18.336;2023-07-24T07:46:30;26.25;74.38
75010;DHT22;63564;46.840;18.336;2023-07-24T07:49:30;26.44;73.58
75010;DHT22;63564;46.840;18.336;2023-07-24T07:52:30;26.26;73.69
75010;DHT22;63564;46.840;18.336;2023-07-24T07:55:31;26.53;73.11
75010;DHT22;63564;46.840;18.336;2023-07-24T07:58:31;26.77;72.39
75010;DHT22;63564;46.840;18.336;2023-07-24T08:01:32;26.94;70.65
75010;DHT22;63564;46.840;18.336;2023-07-24T08:04:32;27.01;70.82
75010;DHT22;63564;46.840;18.336;2023-07-24T08:07:33;27.21;69.03
75010;DHT22;63564;46.840;18.336;2023-07-24T08:10:33;27.21;72.59
75010;DHT22;63564;46.840;18.336;2023-07-24T08:13:36;27.41;70.70
75010;DHT22;63564;46.840;18.336;2023-07-24T08:16:37;27.11;71.36
75010;DHT22;63564;46.840;18.336;2023-07-24T08:19:37;27.32;68.90
75010;DHT22;63564;46.840;18.336;2023-07-24T08:22:37;27.32;70.57
75010;DHT22;63564;46.840;18.336;2023-07-24T08:25:38;27.56;68.26
75010;DHT22;63564;46.840;18.336;2023-07-24T08:28:38;27.52;67.89
75010;DHT22;63564;46.840;18.336;2023-07-24T08:31:42;27.49;68.07
75010;DHT22;63564;46.840;18.336;2023-07-24T08:34:42;27.64;68.25
75010;DHT22;63564;46.840;18.336;2023-07-24T08:37:43;27.70;70.16
75010;DHT22;63564;46.840;18.336;2023-07-24T08:40:44;27.71;68.09
75010;DHT22;63564;46.840;18.336;2023-07-24T08:43:44;27.63;68.05
75010;DHT22;63564;46.840;18.336;2023-07-24T08:46:46;27.93;67.79
75010;DHT22;63564;46.840;18.336;2023-07-24T08:49:48;27.79;69.22
75010;DHT22;63564;46.840;18.336;2023-07-24T08:52:50;27.67;68.64
75010;DHT22;63564;46.840;18.336;2023-07-24T08:55:52;27.94;68.73
75010;DHT22;63564;46.840;18.336;2023-07-24T08:58:52;27.86;67.04
75010;DHT22;63564;46.840;18.336;2023-07-24T09:01:53;27.94;69.17
75010;DHT22;63564;46.840;18.336;2023-07-24T09:04:53;28.07;67.62
75010;DHT22;63564;46.840;18.336;2023-07-24T09:07:53;28.24;66.44
75010;DHT22;63564;46.840;18.336;2023-07-24T09:10:54;28.21;66.10
75010;DHT22;63564;46.840;18.336;2023-07-24T09:13:54;28.11;66.86
75010;DHT22;63564;46.840;18.336;2023-07-24T09:17:09;28.31;65.05
75010;DHT22;63564;46.840;18.336;2023-07-24T09:20:09;28.70;65.35
75010;DHT22;63564;46.840;18.336;2023-07-24T09:23:11;28.83;65.16
75010;DHT22;63564;46.840;18.336;2023-07-24T09:26:12;29.04;63.18
75010;DHT22;63564;46.840;18.336;2023-07-24T09:29:12;28.92;62.05
75010;DHT22;63564;46.840;18.336;2023-07-24T09:32:23;29.23;63.92
75010;DHT22;63564;46.840;18.336;2023-07-24T09:35:24;29.37;61.45
75010;DHT22;63564;46.840;18.336;2023-07-24T09:38:27;28.97;66.09
75010;DHT22;63564;46.840;18.336;2023-07-24T09:41:28;28.90;64.33
75010;DHT22;63564;46.840;18.336;2023-07-24T09:44:28;28.96;63.40
75010;DHT22;63564;46.840;18.336;2023-07-24T09:47:30;29.32;63.98
75010;DHT22;63564;46.840;18.336;2023-07-24T09:50:31;29.63;63.82
75010;DHT22;63564;46.840;18.336;2023-07-24T09:53:52;29.61;61.86
75010;DHT22;63564;46.840;18.336;2023-07-24T09:56:55;29.88;63.11
75010;DHT22;63564;46.840;18.336;2023-07-24T09:59:56;30.03;61.26
75010;DHT22;63564;46.840;18.336;2023-07-24T10:02:57;30.33;59.36
75010;DHT22;63564;46.840;18.336;2023-07-24T10:05:59;29.75;60.34
75010;DHT22;63564;46.840;18.336;2023-07-24T10:09:00;29.71;61.55
75010;DHT22;63564;46.840;18.336;2023-07-24T10:12:01;29.61;61.05
75010;DHT22;63564;46.840;18.336;2023-07-24T10:15:02;29.69;62.36
75010;DHT22;63564;46.840;18.336;2023-07-24T10:18:04;29.80;61.38
75010;DHT22;63564;46.840;18.336;2023-07-24T10:21:09;29.92;59.94
75010;DHT22;63564;46.840;18.336;2023-07-24T10:24:10;29.62;60.82
75010;DHT22;63564;46.840;18.336;2023-07-24T10:27:11;29.78;61.32
75010;DHT22;63564;46.840;18.336;2023-07-24T10:30:12;29.69;61.50
75010;DHT22;63564;46.840;18.336;2023-07-24T10:33:21;29.66;61.01
75010;DHT22;63564;46.840;18.336;2023-07-24T10:36:22;29.65;61.92
75010;DHT22;63564;46.840;18.336;2023-07-24T10:39:23;30.02;60.27
75010;DHT22;63564;46.840;18.336;2023-07-24T10:42:24;29.75;61.20
75010;DHT22;63564;46.840;18.336;2023-07-24T10:45:24;29.52;61.43
75010;DHT22;63564;46.840;18.336;2023-07-24T10:48:25;29.98;61.52
75010;DHT22;63564;46.840;18.336;2023-07-24T10:51:26;29.80;58.65
75010;DHT22;63564;46.840;18.336;2023-07-24T10:54:26;29.85;58.77
75010;DHT22;63564;46.840;18.336;2023-07-24T10:57:27;30.23;59.83
75010;DHT22;63564;46.840;18.336;2023-07-24T11:00:27;30.49;59.52
75010;DHT22;63564;46.840;18.336;2023-07-24T11:03:28;30.41;58.67
75010;DHT22;63564;46.840;18.336;2023-07-24T11:06:28;30.20;57.28
75010;DHT22;63564;46.840;18.336;2023-07-24T11:09:36;30.65;57.75
75010;DHT22;63564;46.840;18.336;2023-07-24T11:12:38;30.74;57.29
75010;DHT22;63564;46.840;18.336;2023-07-24T11:15:39;30.54;56.89
75010;DHT22;63564;46.840;18.336;2023-07-24T11:18:48;30.49;55.40
75010;DHT22;63564;46.840;18.336;2023-07-24T11:21:48;30.65;55.83
75010;DHT22;63564;46.840;18.336;2023-07-24T11:24:49;30.86;55.78
75010;DHT22;63564;46.840;18.336;2023-07-24T11:27:49;31.08;55.72
75010;DHT22;63564;46.840;18.336;2023-07-24T11:30:49;31.40;54.62
75010;DHT22;63564;46.840;18.336;2023-07-24T11:33:52;31.74;52.72
75010;DHT22;63564;46.840;18.336;2023-07-24T11:36:53;31.77;52.25
75010;DHT22;63564;46.840;18.336;2023-07-24T11:39:57;31.77;51.54
75010;DHT22;63564;46.840;18.336;2023-07-24T11:42:58;31.48;50.72
75010;DHT22;63564;46.840;18.336;2023-07-24T11:45:58;31.48;52.25
75010;DHT22;63564;46.840;18.336;2023-07-24T11:48:58;31.60;52.98
75010;DHT22;63564;46.840;18.336;2023-07-24T11:52:00;31.64;51.86
75010;DHT22;63564;46.840;18.336;2023-07-24T11:55:01;31.60;52.82
75010;DHT22;63564;46.840;18.336;2023-07-24T11:58:03;32.04;50.47
75010;DHT22;63564;46.840;18.336;2023-07-24T12:01:04;32.42;49.31
75010;DHT22;63564;46.840;18.336;2023-07-24T12:04:04;32.11;51.95
75010;DHT22;63564;46.840;18.336;2023-07-24T12:07:08;31.82;49.86
75010;DHT22;63564;46.840;18.336;2023-07-24T12:10:09;32.35;48.84
75010;DHT22;63564;46.840;18.336;2023-07-24T12:13:09;32.31;49.18
75010;DHT22;63564;46.840;18.336;2023-07-24T12:16:10;32.12;49.22
75010;DHT22;63564;46.840;18.336;2023-07-24T12:19:10;32.21;48.97
75010;DHT22;63564;46.840;18.336;2023-07-24T12:22:10;32.56;45.92
75010;DHT22;63564;46.840;18.336;2023-07-24T12:25:11;32.22;46.14
75010;DHT22;63564;46.840;18.336;2023-07-24T12:28:11;32.19;46.13
75010;DHT22;63564;46.840;18.336;2023-07-24T12:31:12;32.50;47.44
75010;DHT22;63564;46.840;18.336;2023-07-24T12:34:12;32.71;47.99
75010;DHT22;63564;46.840;18.336;2023-07-24T12:37:13;32.80;47.26
75010;DHT22;63564;46.840;18.336;2023-07-24T12:40:13;32.88;47.41
75010;DHT22;63564;46.840;18.336;2023-07-24T12:43:15;32.53;45.75
75010;DHT22;63564;46.840;18.336;2023-07-24T12:46:15;32.74;46.53
75010;DHT22;63564;46.840;18.336;2023-07-24T12:49:15;32.74;47.00
75010;DHT22;63564;46.840;18.336;2023-07-24T12:52:16;33.21;46.82
75010;DHT22;63564;46.840;18.336;2023-07-24T12:55:16;33.11;48.80
75010;DHT22;63564;46.840;18.336;2023-07-24T12:58:17;33.41;47.15
75010;DHT22;63564;46.840;18.336;2023-07-24T13:01:17;32.96;46.48
75010;DHT22;63564;46.840;18.336;2023-07-24T13:04:19;32.92;47.03
75010;DHT22;63564;46.840;18.336;2023-07-24T13:07:20;33.25;46.02
75010;DHT22;63564;46.840;18.336;2023-07-24T13:10:20;33.11;47.85
75010;DHT22;63564;46.840;18.336;2023-07-24T13:13:21;33.18;45.33
75010;DHT22;63564;46.840;18.336;2023-07-24T13:16:22;34.10;45.20
75010;DHT22;63564;46.840;18.336;2023-07-24T13:19:22;33.90;44.60
75010;DHT22;63564;46.840;18.336;2023-07-24T13:22:22;34.03;44.34
75010;DHT22;63564;46.840;18.336;2023-07-24T13:25:23;35.17;40.27
75010;DHT22;63564;46.840;18.336;2023-07-24T13:28:23;35.26;42.00
75010;DHT22;63564;46.840;18.336;2023-07-24T13:31:24;34.95;40.19
75010;DHT22;63564;46.840;18.336;2023-07-24T13:34:24;35.98;37.86
75010;DHT22;63564;46.840;18.336;2023-07-24T13:37:25;36.73;38.90
75010;DHT22;63564;46.840;18.336;2023-07-24T13:40:26;37.22;37.84
75010;DHT22;63564;46.840;18.336;2023-07-24T13:43:28;37.13;37.01
75010;DHT22;63564;46.840;18.336;2023-07-24T13:46:28;35.23;38.43
75010;DHT22;63564;46.840;18.336;2023-07-24T13:49:28;36.42;36.91
75010;DHT22;63564;46.840;18.336;2023-07-24T13:52:29;36.92;36.80
75010;DHT22;63564;46.840;18.336;2023-07-24T13:55:30;36.63;36.56
75010;DHT22;63564;46.840;18.336;2023-07-24T13:58:30;33.56;43.20
75010;DHT22;63564;46.840;18.336;2023-07-24T14:01:31;32.25;44.56
75010;DHT22;63564;46.840;18.336;2023-07-24T14:04:32;32.33;45.35
75010;DHT22;63564;46.840;18.336;2023-07-24T14:07:32;32.18;46.18
75010;DHT22;63564;46.840;18.336;2023-07-24T14:10:33;32.08;46.84
75010;DHT22;63564;46.840;18.336;2023-07-24T14:13:33;32.14;46.07
75010;DHT22;63564;46.840;18.336;2023-07-24T14:16:33;32.28;46.21
75010;DHT22;63564;46.840;18.336;2023-07-24T14:19:34;31.91;47.33
75010;DHT22;63564;46.840;18.336;2023-07-24T14:22:34;34.74;41.31
75010;DHT22;63564;46.840;18.336;2023-07-24T14:25:35;35.06;41.41
75010;DHT22;63564;46.840;18.336;2023-07-24T14:28:35;33.32;45.82
75010;DHT22;63564;46.840;18.336;2023-07-24T14:31:37;32.32;45.87
75010;DHT22;63564;46.840;18.336;2023-07-24T14:34:37;32.23;47.37
75010;DHT22;63564;46.840;18.336;2023-07-24T14:37:38;32.80;46.09
75010;DHT22;63564;46.840;18.336;2023-07-24T14:40:38;33.80;44.84
75010;DHT22;63564;46.840;18.336;2023-07-24T14:43:40;33.46;46.05
75010;DHT22;63564;46.840;18.336;2023-07-24T14:46:41;33.51;44.67
75010;DHT22;63564;46.840;18.336;2023-07-24T14:49:42;33.94;44.58
75010;DHT22;63564;46.840;18.336;2023-07-24T14:52:42;33.36;45.98
75010;DHT22;63564;46.840;18.336;2023-07-24T14:55:44;33.25;46.02
75010;DHT22;63564;46.840;18.336;2023-07-24T14:58:44;32.57;46.78
75010;DHT22;63564;46.840;18.336;2023-07-24T15:01:45;32.05;47.85
75010;DHT22;63564;46.840;18.336;2023-07-24T15:04:46;31.68;49.15
75010;DHT22;63564;46.840;18.336;2023-07-24T15:07:46;31.33;48.86
75010;DHT22;63564;46.840;18.336;2023-07-24T15:10:47;31.30;49.11
75010;DHT22;63564;46.840;18.336;2023-07-24T15:13:51;31.43;49.30
75010;DHT22;63564;46.840;18.336;2023-07-24T15:16:52;31.10;50.63
75010;DHT22;63564;46.840;18.336;2023-07-24T15:19:52;30.82;50.73
75010;DHT22;63564;46.840;18.336;2023-07-24T15:22:53;30.72;50.96
75010;DHT22;63564;46.840;18.336;2023-07-24T15:25:54;30.61;52.68
75010;DHT22;63564;46.840;18.336;2023-07-24T15:28:55;30.55;52.72
75010;DHT22;63564;46.840;18.336;2023-07-24T15:31:56;30.57;51.61
75010;DHT22;63564;46.840;18.336;2023-07-24T15:34:56;30.40;53.00
75010;DHT22;63564;46.840;18.336;2023-07-24T15:37:56;30.18;52.55
75010;DHT22;63564;46.840;18.336;2023-07-24T15:40:57;30.23;52.35
75010;DHT22;63564;46.840;18.336;2023-07-24T15:43:58;30.17;52.31
75010;DHT22;63564;46.840;18.336;2023-07-24T15:46:59;29.86;53.81
75010;DHT22;63564;46.840;18.336;2023-07-24T15:49:59;29.89;54.18
75010;DHT22;63564;46.840;18.336;2023-07-24T15:53:02;29.89;53.99
75010;DHT22;63564;46.840;18.336;2023-07-24T15:56:02;29.92;53.85
75010;DHT22;63564;46.840;18.336;2023-07-24T15:59:03;30.00;53.74
75010;DHT22;63564;46.840;18.336;2023-07-24T16:02:04;29.98;54.01
75010;DHT22;63564;46.840;18.336;2023-07-24T16:05:05;29.92;54.61
75010;DHT22;63564;46.840;18.336;2023-07-24T16:08:15;29.98;53.82
75010;DHT22;63564;46.840;18.336;2023-07-24T16:11:15;29.85;54.81
75010;DHT22;63564;46.840;18.336;2023-07-24T16:14:16;29.76;54.78
75010;DHT22;63564;46.840;18.336;2023-07-24T16:17:16;29.61;56.55
75010;DHT22;63564;46.840;18.336;2023-07-24T16:20:17;29.58;56.00
75010;DHT22;63564;46.840;18.336;2023-07-24T16:23:17;29.66;56.12
75010;DHT22;63564;46.840;18.336;2023-07-24T16:26:18;29.69;56.21
75010;DHT22;63564;46.840;18.336;2023-07-24T16:29:18;29.65;55.76
75010;DHT22;63564;46.840;18.336;2023-07-24T16:32:19;29.54;57.10
75010;DHT22;63564;46.840;18.336;2023-07-24T16:35:20;29.51;56.49
75010;DHT22;63564;46.840;18.336;2023-07-24T16:38:20;29.41;56.70
75010;DHT22;63564;46.840;18.336;2023-07-24T16:41:22;29.37;57.70
75010;DHT22;63564;46.840;18.336;2023-07-24T16:44:23;29.39;57.72
75010;DHT22;63564;46.840;18.336;2023-07-24T16:47:23;29.35;57.70
75010;DHT22;63564;46.840;18.336;2023-07-24T16:50:24;29.23;58.42
75010;DHT22;63564;46.840;18.336;2023-07-24T16:53:25;29.23;58.45
75010;DHT22;63564;46.840;18.336;2023-07-24T16:56:26;29.44;57.42
75010;DHT22;63564;46.840;18.336;2023-07-24T16:59:26;29.14;58.28
75010;DHT22;63564;46.840;18.336;2023-07-24T17:02:27;29.08;57.99
75010;DHT22;63564;46.840;18.336;2023-07-24T17:05:28;29.06;57.94
75010;DHT22;63564;46.840;18.336;2023-07-24T17:08:29;28.96;57.87
75010;DHT22;63564;46.840;18.336;2023-07-24T17:11:29;28.89;58.24
75010;DHT22;63564;46.840;18.336;2023-07-24T17:14:30;28.76;58.61
75010;DHT22;63564;46.840;18.336;2023-07-24T17:17:31;28.73;58.85
75010;DHT22;63564;46.840;18.336;2023-07-24T17:20:32;28.70;58.99
75010;DHT22;63564;46.840;18.336;2023-07-24T17:23:33;28.66;59.46
75010;DHT22;63564;46.840;18.336;2023-07-24T17:26:33;28.82;59.10
75010;DHT22;63564;46.840;18.336;2023-07-24T17:29:35;28.79;59.69
75010;DHT22;63564;46.840;18.336;2023-07-24T17:32:35;28.80;59.49
75010;DHT22;63564;46.840;18.336;2023-07-24T17:35:37;28.73;59.87
75010;DHT22;63564;46.840;18.336;2023-07-24T17:38:38;28.73;59.52
75010;DHT22;63564;46.840;18.336;2023-07-24T17:41:39;28.59;59.89
75010;DHT22;63564;46.840;18.336;2023-07-24T17:44:40;28.52;60.75
75010;DHT22;63564;46.840;18.336;2023-07-24T17:47:41;28.48;60.62
75010;DHT22;63564;46.840;18.336;2023-07-24T17:50:42;28.35;61.23
75010;DHT22;63564;46.840;18.336;2023-07-24T17:53:42;28.39;60.91
75010;DHT22;63564;46.840;18.336;2023-07-24T17:56:43;28.22;61.48
75010;DHT22;63564;46.840;18.336;2023-07-24T17:59:45;28.04;62.18
75010;DHT22;63564;46.840;18.336;2023-07-24T18:02:46;28.08;62.38
75010;DHT22;63564;46.840;18.336;2023-07-24T18:05:48;27.93;62.62
75010;DHT22;63564;46.840;18.336;2023-07-24T18:08:50;27.86;63.15
75010;DHT22;63564;46.840;18.336;2023-07-24T18:11:52;27.83;63.00
75010;DHT22;63564;46.840;18.336;2023-07-24T18:14:52;27.70;63.78
75010;DHT22;63564;46.840;18.336;2023-07-24T18:17:53;27.45;64.82
75010;DHT22;63564;46.840;18.336;2023-07-24T18:20:54;27.38;64.94
75010;DHT22;63564;46.840;18.336;2023-07-24T18:23:55;27.32;65.32
75010;DHT22;63564;46.840;18.336;2023-07-24T18:26:58;27.24;65.47
75010;DHT22;63564;46.840;18.336;2023-07-24T18:29:59;27.16;65.91
75010;DHT22;63564;46.840;18.336;2023-07-24T18:32:59;27.14;66.03
75010;DHT22;63564;46.840;18.336;2023-07-24T18:36:01;27.05;66.27
75010;DHT22;63564;46.840;18.336;2023-07-24T18:39:01;26.94;67.05
75010;DHT22;63564;46.840;18.336;2023-07-24T18:42:04;26.87;67.20
75010;DHT22;63564;46.840;18.336;2023-07-24T18:45:06;26.70;67.85
75010;DHT22;63564;46.840;18.336;2023-07-24T18:48:07;26.64;68.15
75010;DHT22;63564;46.840;18.336;2023-07-24T18:51:09;26.46;69.02